Disclaimer

Please do not use the information listed here in-flight or in-navigation, as they are not provided to us by the airports but are provided by volunteers, so they might be outdated.

Search


Regions


Airport information page

Radio informations:
Tower (TWR) - 120.7 MHz
A/G VOICE RDO - 123.6 MHz

Airport informations:
Latitude: 06° 09' 56.20" N
Longitude: 001° 15' 16.24" E
Elevation: 72 feet - 22 meters
Operating hours: N/A
Operating agency: Military-civil joint use airport
Timezone: UTC 0
Fuel: 100/130 octane gasoline, leaded, MIL-L-5572F (GREEN)

100/130 MIL Spec, low lead, aviation gasoline (BLUE)

Runway information:
04/22 - 9847 x 148 feet< - >3001 x 45 meters

Recent METARs:
DXXX 130300Z 32004KT 8000 FEW010 27/25 Q1012 NOSIG
DXXX 130400Z 34002KT 8000 FEW010 26/24 Q1013 NOSIG
DXXX 130400Z 34002KT 8000 FEW010 26/24 Q1013 NOSIG

Airport on the map: